Time;durP1;ratioP1;P1;durP2;ratioP2;P2;SDS_P1;SDS_P2;PMS_P1;PMS_P2;Temp;Humidity;BMP_temperature;BMP_pressure;BME280_temperature;BME280_humidity;BME280_pressure;Samples;Min_cycle;Max_cycle;Signal;HPM_P1;HPM_P2
2024/01/05 00:01:43;;;;;;;13.80;1.25;;;7.60;99.90;;;;;;4841982;29;20474;-68
2024/01/05 00:04:09;;;;;;;7.32;1.10;;;7.60;99.90;;;;;;4841622;29;20475;-68
2024/01/05 00:06:38;;;;;;;0.65;0.55;;;7.60;99.90;;;;;;4842511;29;20030;-68
2024/01/05 00:09:04;;;;;;;1.48;0.70;;;7.60;99.90;;;;;;4842486;29;20050;-68
2024/01/05 00:11:30;;;;;;;3.08;1.42;;;7.60;99.90;;;;;;4842436;29;20259;-68
2024/01/05 00:13:59;;;;;;;1.92;0.82;;;7.70;99.90;;;;;;4856816;29;20073;-68
2024/01/05 00:16:24;;;;;;;5.70;1.52;;;7.80;99.90;;;;;;4853994;29;20456;-68
2024/01/05 00:18:51;;;;;;;6.60;0.80;;;7.70;99.90;;;;;;4841502;29;20026;-68
2024/01/05 00:21:26;;;;;;;0.82;0.43;;;7.70;99.90;;;;;;4854792;29;20049;-68
2024/01/05 00:23:54;;;;;;;2.38;0.38;;;7.70;99.90;;;;;;4833828;29;20503;-68
2024/01/05 00:26:21;;;;;;;1.30;0.77;;;7.70;99.90;;;;;;4856349;29;20054;-68
2024/01/05 00:28:50;;;;;;;8.25;0.73;;;7.70;99.90;;;;;;4842282;29;20045;-68
2024/01/05 00:31:16;;;;;;;6.70;1.20;;;7.60;99.90;;;;;;4853517;29;20034;-68
2024/01/05 00:33:43;;;;;;;1.27;0.55;;;7.70;99.90;;;;;;4840597;29;20082;-68
2024/01/05 00:36:11;;;;;;;5.90;1.38;;;7.70;99.90;;;;;;4856366;29;20064;-68
2024/01/05 00:38:37;;;;;;;4.85;1.15;;;7.80;99.90;;;;;;4856264;29;20487;-68
2024/01/05 00:41:04;;;;;;;8.10;1.38;;;7.80;99.90;;;;;;4855239;29;20116;-68
2024/01/05 00:43:30;;;;;;;3.28;1.50;;;7.80;99.90;;;;;;4838413;29;20038;-68
2024/01/05 00:45:56;;;;;;;5.88;1.58;;;7.70;99.90;;;;;;4855890;29;20049;-68
2024/01/05 00:48:23;;;;;;;14.98;1.65;;;7.70;99.90;;;;;;4837808;29;20388;-68
2024/01/05 00:50:49;;;;;;;4.82;0.95;;;7.70;99.90;;;;;;4855966;29;20419;-68
2024/01/05 00:53:15;;;;;;;2.67;1.10;;;7.80;99.90;;;;;;4855407;29;20030;-68
2024/01/05 00:55:40;;;;;;;5.53;0.90;;;7.70;99.90;;;;;;4855862;29;20065;-68
2024/01/05 00:58:06;;;;;;;2.05;0.82;;;7.80;99.90;;;;;;4855216;29;20033;-68
2024/01/05 01:00:32;;;;;;;3.60;1.77;;;7.80;99.90;;;;;;4841797;29;20379;-68
2024/01/05 01:02:58;;;;;;;1.88;1.05;;;7.70;99.90;;;;;;4855493;29;20086;-68
2024/01/05 01:05:24;;;;;;;6.55;1.80;;;7.70;99.90;;;;;;4841660;29;20041;-68
2024/01/05 01:07:50;;;;;;;6.90;0.68;;;7.50;99.90;;;;;;4841554;29;20033;-68
2024/01/05 01:10:16;;;;;;;1.73;0.73;;;7.60;99.90;;;;;;4841850;29;20045;-68
2024/01/05 01:12:41;;;;;;;6.68;0.70;;;7.50;99.90;;;;;;4855192;29;20065;-68
2024/01/05 01:15:08;;;;;;;5.78;0.75;;;7.50;99.90;;;;;;4855899;29;20044;-68
2024/01/05 01:17:34;;;;;;;9.13;1.17;;;7.40;99.90;;;;;;4839790;29;20038;-68
2024/01/05 01:20:00;;;;;;;2.83;0.70;;;7.30;99.90;;;;;;4855673;29;20030;-68
2024/01/05 01:22:26;;;;;;;2.75;1.63;;;7.30;99.90;;;;;;4855243;29;20094;-68
2024/01/05 01:24:52;;;;;;;2.50;0.52;;;7.20;99.90;;;;;;4855404;29;20082;-68
2024/01/05 01:27:17;;;;;;;6.00;0.82;;;7.20;99.90;;;;;;4855745;29;20046;-67
2024/01/05 01:29:43;;;;;;;1.23;0.75;;;7.10;99.90;;;;;;4841026;29;20425;-67
2024/01/05 01:32:09;;;;;;;10.77;1.60;;;7.10;99.90;;;;;;4844207;29;20042;-67
2024/01/05 01:34:39;;;;;;;5.97;0.95;;;7.10;99.90;;;;;;4841147;29;20030;-67
2024/01/05 01:37:05;;;;;;;5.07;1.27;;;7.10;99.90;;;;;;4845234;29;20756;-67
2024/01/05 01:39:32;;;;;;;1.70;0.73;;;7.00;99.90;;;;;;4855226;29;20113;-67
2024/01/05 01:41:58;;;;;;;1.02;0.68;;;7.00;99.90;;;;;;4839462;29;20034;-67
2024/01/05 01:44:24;;;;;;;2.72;0.60;;;7.00;99.90;;;;;;4855265;29;20037;-67
2024/01/05 01:46:53;;;;;;;4.85;1.10;;;7.00;99.90;;;;;;4851403;29;20038;-67
2024/01/05 01:49:20;;;;;;;6.63;1.25;;;7.00;99.90;;;;;;4854695;29;20487;-67
2024/01/05 01:51:48;;;;;;;3.30;1.30;;;7.10;99.90;;;;;;4854131;29;20045;-67
2024/01/05 01:54:15;;;;;;;2.10;0.85;;;7.20;99.90;;;;;;4854441;29;20036;-67
2024/01/05 01:56:43;;;;;;;13.30;1.80;;;7.20;99.90;;;;;;4854425;29;20566;-67
2024/01/05 01:59:09;;;;;;;2.67;1.00;;;7.20;99.90;;;;;;4854482;29;20033;-67
2024/01/05 02:01:36;;;;;;;2.40;0.80;;;7.10;99.90;;;;;;4836628;29;20031;-67
2024/01/05 02:04:03;;;;;;;8.38;1.40;;;7.10;99.90;;;;;;4853167;29;20026;-67
2024/01/05 02:06:29;;;;;;;5.63;1.55;;;7.10;99.90;;;;;;4852639;29;20026;-66
2024/01/05 02:08:55;;;;;;;0.77;0.43;;;7.10;99.90;;;;;;4862562;29;20546;-67
2024/01/05 02:11:21;;;;;;;1.55;0.57;;;7.00;99.90;;;;;;4853152;29;20133;-67
2024/01/05 02:13:48;;;;;;;1.85;1.17;;;6.80;99.90;;;;;;4839734;29;20126;-67
2024/01/05 02:16:14;;;;;;;1.85;0.90;;;6.60;99.90;;;;;;4839286;29;20205;-67
2024/01/05 02:18:40;;;;;;;2.08;0.95;;;6.70;99.90;;;;;;4854222;29;20061;-67
2024/01/05 02:21:08;;;;;;;7.65;1.02;;;6.80;99.90;;;;;;4839758;29;20562;-67
2024/01/05 02:23:34;;;;;;;13.27;1.30;;;6.70;99.90;;;;;;4853939;29;20029;-66
2024/01/05 02:26:00;;;;;;;7.88;1.15;;;6.80;99.90;;;;;;4854472;29;20029;-67
2024/01/05 02:28:26;;;;;;;2.75;1.52;;;6.80;99.90;;;;;;4854770;29;20051;-67
2024/01/05 02:30:59;;;;;;;3.42;1.38;;;6.80;99.90;;;;;;4839140;29;20034;-70
2024/01/05 02:33:24;;;;;;;7.80;1.83;;;6.80;99.90;;;;;;4839071;29;20045;-66
2024/01/05 02:35:50;;;;;;;4.60;2.08;;;6.80;99.90;;;;;;4854522;29;20042;-71
2024/01/05 02:38:16;;;;;;;2.92;1.20;;;6.80;99.90;;;;;;4854820;29;20030;-71
2024/01/05 02:40:42;;;;;;;3.72;1.52;;;6.80;99.90;;;;;;4857131;29;20075;-71
2024/01/05 02:43:07;;;;;;;12.13;1.42;;;6.80;99.90;;;;;;4850999;29;20042;-70
2024/01/05 02:45:34;;;;;;;6.68;1.80;;;6.80;99.90;;;;;;4854314;29;20203;-67
2024/01/05 02:48:01;;;;;;;8.15;1.98;;;6.80;99.90;;;;;;4837054;29;20038;-67
2024/01/05 02:50:27;;;;;;;2.70;1.10;;;6.80;99.90;;;;;;4854191;29;20034;-67
2024/01/05 02:52:53;;;;;;;7.35;1.55;;;6.90;99.90;;;;;;4839531;29;20450;-67
2024/01/05 02:55:18;;;;;;;6.47;1.48;;;6.80;99.90;;;;;;4853993;29;20034;-67
2024/01/05 02:57:44;;;;;;;1.58;0.98;;;6.70;99.90;;;;;;4839827;29;20500;-67
2024/01/05 03:00:10;;;;;;;4.47;1.40;;;6.70;99.90;;;;;;4854198;29;20036;-67
2024/01/05 03:02:36;;;;;;;1.83;1.27;;;6.60;99.90;;;;;;4850421;29;20050;-67
2024/01/05 03:05:05;;;;;;;3.08;1.23;;;6.60;99.90;;;;;;4854131;29;20034;-67
2024/01/05 03:07:31;;;;;;;5.53;1.23;;;6.60;99.90;;;;;;4854015;29;20072;-67
2024/01/05 03:09:57;;;;;;;2.75;0.90;;;6.70;99.90;;;;;;4854287;29;20455;-67
2024/01/05 03:12:22;;;;;;;2.08;0.80;;;6.70;99.90;;;;;;4839402;29;20038;-66
2024/01/05 03:14:48;;;;;;;5.28;1.23;;;6.70;99.90;;;;;;4839424;29;20101;-66
2024/01/05 03:17:15;;;;;;;3.45;0.80;;;6.70;99.90;;;;;;4850401;29;20048;-66
2024/01/05 03:19:41;;;;;;;0.80;0.63;;;6.70;99.90;;;;;;4853154;29;20428;-67
2024/01/05 03:22:06;;;;;;;2.85;1.17;;;6.80;99.90;;;;;;4851653;29;20166;-67
2024/01/05 03:24:32;;;;;;;6.22;1.17;;;6.80;99.90;;;;;;4842175;29;20094;-66
2024/01/05 03:26:58;;;;;;;7.78;1.63;;;6.80;99.90;;;;;;4840208;29;20398;-67
2024/01/05 03:29:23;;;;;;;3.95;1.05;;;6.80;99.90;;;;;;4842589;29;20049;-68
2024/01/05 03:31:49;;;;;;;2.10;0.98;;;6.80;99.90;;;;;;4853514;29;20034;-68
2024/01/05 03:34:18;;;;;;;7.72;1.20;;;6.70;99.90;;;;;;4857389;29;20515;-69
2024/01/05 03:36:44;;;;;;;1.95;1.08;;;6.70;99.90;;;;;;4838514;29;20054;-70
2024/01/05 03:39:10;;;;;;;1.73;1.10;;;6.60;99.90;;;;;;4843220;29;20442;-70
2024/01/05 03:41:35;;;;;;;5.00;2.05;;;6.70;99.90;;;;;;4853339;29;20055;-70
2024/01/05 03:44:01;;;;;;;9.73;1.38;;;6.70;99.90;;;;;;4857124;29;20082;-67
2024/01/05 03:46:27;;;;;;;0.98;0.68;;;6.70;99.90;;;;;;4836019;29;20050;-67
2024/01/05 03:48:53;;;;;;;4.35;1.20;;;6.70;99.90;;;;;;4841414;29;20041;-67
2024/01/05 03:51:19;;;;;;;1.02;0.70;;;6.70;99.90;;;;;;4842904;29;20026;-67
2024/01/05 03:53:45;;;;;;;8.02;1.23;;;6.70;99.90;;;;;;4842615;29;20121;-67
2024/01/05 03:56:10;;;;;;;3.83;1.45;;;6.80;99.90;;;;;;4839742;29;20034;-67
2024/01/05 03:58:36;;;;;;;3.10;1.05;;;6.80;99.90;;;;;;4826090;29;20037;-70
2024/01/05 04:01:03;;;;;;;2.67;0.60;;;6.70;99.90;;;;;;4856839;29;20033;-71
2024/01/05 04:03:29;;;;;;;4.97;1.60;;;6.80;99.90;;;;;;4856484;29;20026;-66
2024/01/05 04:05:55;;;;;;;4.50;1.60;;;6.70;99.90;;;;;;4856862;29;20104;-68
2024/01/05 04:08:22;;;;;;;3.92;0.90;;;6.70;99.90;;;;;;4837948;29;20050;-68
2024/01/05 04:10:48;;;;;;;2.65;0.85;;;6.60;99.90;;;;;;4842161;29;20030;-67
2024/01/05 04:13:14;;;;;;;1.33;0.77;;;6.60;99.90;;;;;;4842429;29;20034;-67
2024/01/05 04:15:40;;;;;;;3.92;0.60;;;6.60;99.90;;;;;;4842195;29;20479;-67
2024/01/05 04:18:06;;;;;;;1.52;0.60;;;6.70;99.90;;;;;;4855986;29;20106;-67
2024/01/05 04:20:33;;;;;;;2.70;1.20;;;6.70;99.90;;;;;;4841855;29;20030;-67
2024/01/05 04:23:00;;;;;;;6.15;2.72;;;6.70;99.90;;;;;;4852051;29;20037;-67
2024/01/05 04:25:26;;;;;;;4.40;1.00;;;6.70;99.90;;;;;;4840793;29;20065;-67
2024/01/05 04:27:52;;;;;;;2.83;1.50;;;6.70;99.90;;;;;;4838758;29;20084;-67
2024/01/05 04:30:20;;;;;;;9.25;0.57;;;6.80;99.90;;;;;;4842443;29;20046;-67
2024/01/05 04:32:46;;;;;;;0.95;0.70;;;6.80;99.90;;;;;;4854408;29;20034;-67
2024/01/05 04:35:12;;;;;;;1.17;0.65;;;6.80;99.90;;;;;;4841890;29;20041;-67
2024/01/05 04:37:38;;;;;;;1.63;0.85;;;6.90;99.90;;;;;;4838320;29;20216;-67
2024/01/05 04:40:06;;;;;;;3.38;1.27;;;6.90;99.90;;;;;;4842079;29;20033;-67
2024/01/05 04:42:32;;;;;;;0.65;0.57;;;6.90;99.90;;;;;;4841820;29;20046;-67
2024/01/05 04:45:02;;;;;;;1.65;0.52;;;6.90;99.90;;;;;;4840704;29;20416;-67
2024/01/05 04:47:28;;;;;;;5.57;1.23;;;7.00;99.90;;;;;;4841348;29;20033;-67
2024/01/05 04:49:54;;;;;;;3.00;0.95;;;7.00;99.90;;;;;;4841615;29;20382;-67
2024/01/05 04:52:20;;;;;;;5.97;0.52;;;7.10;99.90;;;;;;4851820;29;20052;-67
2024/01/05 04:54:45;;;;;;;5.32;1.23;;;7.10;99.90;;;;;;4841252;29;20086;-68
2024/01/05 04:57:11;;;;;;;5.97;1.13;;;7.20;99.90;;;;;;4838434;29;20112;-67
2024/01/05 04:59:37;;;;;;;0.55;0.43;;;7.20;99.90;;;;;;4841609;29;20037;-67
2024/01/05 05:02:03;;;;;;;2.20;1.02;;;7.20;99.90;;;;;;4841211;29;20164;-68
2024/01/05 05:04:29;;;;;;;3.05;1.33;;;7.20;99.90;;;;;;4841501;29;20030;-67
2024/01/05 05:06:54;;;;;;;2.80;0.98;;;7.10;99.90;;;;;;4838046;29;20034;-67
2024/01/05 05:09:20;;;;;;;1.45;0.65;;;7.10;99.90;;;;;;4841857;29;20056;-68
2024/01/05 05:11:46;;;;;;;8.95;0.80;;;7.10;99.90;;;;;;4837640;29;20038;-67
2024/01/05 05:14:12;;;;;;;6.25;0.82;;;7.10;99.90;;;;;;4841712;29;20029;-67
2024/01/05 05:16:37;;;;;;;1.80;1.23;;;7.10;99.90;;;;;;4837170;29;20564;-68
2024/01/05 05:19:04;;;;;;;3.13;0.65;;;7.10;99.90;;;;;;4841250;29;20065;-68
2024/01/05 05:21:30;;;;;;;1.33;0.90;;;7.10;99.90;;;;;;4837154;29;20105;-67
2024/01/05 05:23:56;;;;;;;0.47;0.40;;;7.20;99.90;;;;;;4839791;29;20505;-67
2024/01/05 05:26:22;;;;;;;2.47;1.17;;;7.20;99.90;;;;;;4841120;29;20045;-67
2024/01/05 05:28:48;;;;;;;3.20;1.35;;;7.20;99.90;;;;;;4841066;29;20491;-67
2024/01/05 05:31:13;;;;;;;1.92;0.90;;;7.30;99.90;;;;;;4841012;29;20068;-67
2024/01/05 05:33:39;;;;;;;5.25;0.80;;;7.30;99.90;;;;;;4840632;29;20489;-67
2024/01/05 05:36:05;;;;;;;2.70;0.95;;;7.30;99.90;;;;;;4855238;29;20476;-67
2024/01/05 05:38:31;;;;;;;1.00;0.77;;;7.40;99.90;;;;;;4839794;29;20048;-67
2024/01/05 05:40:57;;;;;;;7.15;1.15;;;7.40;99.90;;;;;;4840943;29;20479;-68
2024/01/05 05:43:23;;;;;;;3.30;1.10;;;7.40;99.90;;;;;;4855567;29;20054;-67
2024/01/05 05:45:51;;;;;;;4.10;0.93;;;7.30;99.90;;;;;;4839746;29;20030;-67
2024/01/05 05:48:18;;;;;;;5.10;1.13;;;7.30;99.90;;;;;;4851065;29;20384;-67
2024/01/05 05:50:43;;;;;;;5.65;1.08;;;7.30;99.90;;;;;;4854717;29;20090;-67
2024/01/05 05:53:10;;;;;;;3.45;0.93;;;7.30;99.90;;;;;;4836999;29;20037;-67
2024/01/05 05:55:36;;;;;;;5.32;0.93;;;7.40;99.90;;;;;;4840199;29;20036;-67
2024/01/05 05:58:01;;;;;;;5.38;0.65;;;7.40;99.90;;;;;;4854521;29;20108;-67
2024/01/05 06:00:27;;;;;;;2.72;1.13;;;7.40;99.90;;;;;;4854661;29;20117;-67
2024/01/05 06:02:53;;;;;;;4.82;1.35;;;7.40;99.90;;;;;;4850453;29;20066;-67
2024/01/05 06:05:19;;;;;;;5.90;1.48;;;7.40;99.90;;;;;;4854304;29;20056;-67
2024/01/05 06:07:44;;;;;;;6.35;2.70;;;7.40;99.90;;;;;;4840280;29;20041;-67
2024/01/05 06:10:10;;;;;;;10.02;1.48;;;7.40;99.90;;;;;;4840171;29;20043;-67
2024/01/05 06:12:36;;;;;;;1.92;0.93;;;7.30;99.90;;;;;;4839680;29;20042;-68
2024/01/05 06:15:02;;;;;;;1.70;0.85;;;7.40;99.90;;;;;;4840228;29;20037;-68
2024/01/05 06:17:28;;;;;;;2.25;0.85;;;7.40;99.90;;;;;;4836564;29;20058;-68
2024/01/05 06:19:54;;;;;;;4.97;0.95;;;7.40;99.90;;;;;;4852751;29;20061;-68
2024/01/05 06:22:20;;;;;;;4.63;1.27;;;7.40;99.90;;;;;;4840010;29;20042;-69
2024/01/05 06:24:46;;;;;;;2.45;0.95;;;7.40;99.90;;;;;;4839933;29;20472;-68
2024/01/05 06:27:13;;;;;;;5.93;1.38;;;7.50;99.90;;;;;;4854294;29;20033;-69
2024/01/05 06:29:38;;;;;;;7.03;1.13;;;7.50;99.90;;;;;;4854017;29;20060;-68
2024/01/05 06:32:05;;;;;;;1.67;0.80;;;7.40;99.90;;;;;;4853988;29;20558;-69
2024/01/05 06:34:30;;;;;;;0.85;0.80;;;7.50;99.90;;;;;;4839833;29;20038;-68
2024/01/05 06:36:56;;;;;;;4.90;1.38;;;7.50;99.90;;;;;;4836825;29;20619;-68
2024/01/05 06:39:22;;;;;;;10.77;1.45;;;7.40;99.90;;;;;;4854126;29;20059;-69
2024/01/05 06:41:49;;;;;;;1.50;1.20;;;7.40;99.90;;;;;;4850038;29;20031;-69
2024/01/05 06:44:15;;;;;;;1.33;1.05;;;7.40;99.90;;;;;;4835990;29;20022;-68
2024/01/05 06:46:40;;;;;;;8.65;1.77;;;7.40;99.90;;;;;;4850535;29;20076;-69
2024/01/05 06:49:06;;;;;;;3.58;1.30;;;7.50;99.90;;;;;;4840148;29;20064;-69
2024/01/05 06:51:40;;;;;;;9.00;1.50;;;7.40;99.90;;;;;;4836081;29;20086;-69
2024/01/05 06:54:05;;;;;;;0.95;0.80;;;7.40;99.90;;;;;;4854035;29;20056;-69
2024/01/05 06:56:34;;;;;;;1.90;1.30;;;7.40;99.90;;;;;;4836904;29;20034;-69
2024/01/05 06:59:03;;;;;;;4.07;1.58;;;7.40;99.90;;;;;;4857585;29;20105;-68
2024/01/05 07:01:31;;;;;;;10.65;1.30;;;7.30;99.90;;;;;;4850727;29;20026;-68
2024/01/05 07:03:57;;;;;;;5.47;1.63;;;7.30;99.90;;;;;;4849754;29;20058;-68
2024/01/05 07:06:23;;;;;;;1.70;1.02;;;7.30;99.90;;;;;;4858125;29;20033;-68
2024/01/05 07:08:49;;;;;;;5.90;1.33;;;7.30;99.90;;;;;;4857590;29;20116;-67
2024/01/05 07:11:24;;;;;;;3.75;1.85;;;7.40;99.90;;;;;;4843956;29;20558;-67
2024/01/05 07:13:51;;;;;;;5.28;1.95;;;7.40;99.90;;;;;;4843098;29;20121;-68
2024/01/05 07:16:17;;;;;;;4.88;1.15;;;7.40;99.90;;;;;;4842854;29;20423;-69
2024/01/05 07:18:44;;;;;;;3.28;2.17;;;7.30;99.90;;;;;;4842152;29;20078;-68
2024/01/05 07:21:10;;;;;;;2.20;0.90;;;7.30;99.90;;;;;;4838103;29;20494;-67
2024/01/05 07:23:36;;;;;;;10.13;1.67;;;7.30;99.90;;;;;;4857117;29;20110;-68
2024/01/05 07:26:02;;;;;;;2.00;1.17;;;7.20;99.90;;;;;;4843505;29;20033;-68
2024/01/05 07:28:28;;;;;;;1.80;0.98;;;7.20;99.90;;;;;;4843879;29;20382;-67
2024/01/05 07:30:54;;;;;;;4.22;1.15;;;7.20;99.90;;;;;;4842965;29;20110;-68
2024/01/05 07:33:19;;;;;;;5.05;1.08;;;7.10;99.90;;;;;;4841903;29;20364;-67
2024/01/05 07:35:45;;;;;;;1.50;1.15;;;7.20;99.90;;;;;;4837768;29;20106;-67
2024/01/05 07:38:11;;;;;;;3.80;1.83;;;7.20;99.90;;;;;;4857361;29;20030;-67
2024/01/05 07:40:36;;;;;;;2.30;0.80;;;7.10;99.90;;;;;;4837709;29;20483;-68
2024/01/05 07:43:02;;;;;;;4.45;1.67;;;7.10;99.90;;;;;;4842397;29;20038;-67
2024/01/05 07:45:28;;;;;;;7.57;2.08;;;7.10;99.90;;;;;;4837380;29;20054;-67
2024/01/05 07:47:57;;;;;;;8.00;1.58;;;7.10;99.90;;;;;;4842602;29;20041;-67
2024/01/05 07:50:26;;;;;;;5.07;1.58;;;7.20;99.90;;;;;;4838513;29;20121;-67
2024/01/05 07:52:52;;;;;;;6.72;1.50;;;7.20;99.90;;;;;;4842195;29;20038;-67
2024/01/05 07:55:17;;;;;;;6.20;1.48;;;7.20;99.90;;;;;;4842441;29;20041;-67
2024/01/05 07:57:43;;;;;;;5.50;1.10;;;7.20;99.90;;;;;;4842996;29;20048;-68
2024/01/05 08:00:10;;;;;;;3.78;1.00;;;7.20;99.90;;;;;;4840263;29;20034;-66
2024/01/05 08:02:36;;;;;;;5.60;1.05;;;7.30;99.90;;;;;;4841311;29;20049;-66
2024/01/05 08:05:02;;;;;;;0.98;0.68;;;7.30;99.90;;;;;;4842038;29;20117;-65
2024/01/05 08:07:28;;;;;;;3.05;0.93;;;7.40;99.90;;;;;;4856506;29;20037;-66
2024/01/05 08:09:57;;;;;;;1.88;1.13;;;7.30;99.90;;;;;;4839349;29;20042;-66
2024/01/05 08:12:22;;;;;;;1.42;0.88;;;7.30;99.90;;;;;;4838576;29;20038;-66
2024/01/05 08:14:48;;;;;;;2.92;1.17;;;7.20;99.90;;;;;;4839795;29;20039;-65
2024/01/05 08:17:14;;;;;;;2.03;0.75;;;7.20;99.90;;;;;;4842046;29;20049;-65
2024/01/05 08:19:40;;;;;;;6.22;1.25;;;7.20;99.90;;;;;;4841713;29;20494;-65
2024/01/05 08:22:06;;;;;;;2.38;1.30;;;7.20;99.90;;;;;;4849992;29;20042;-66
2024/01/05 08:24:31;;;;;;;1.52;1.00;;;7.20;99.90;;;;;;4835490;29;20044;-66
2024/01/05 08:26:57;;;;;;;4.53;1.38;;;7.20;99.90;;;;;;4842747;29;20398;-66
2024/01/05 08:29:23;;;;;;;3.92;0.77;;;7.20;99.90;;;;;;4841903;29;20053;-67
2024/01/05 08:31:49;;;;;;;2.05;1.13;;;7.30;99.90;;;;;;4842437;29;20037;-67
2024/01/05 08:34:16;;;;;;;1.63;0.90;;;7.30;99.90;;;;;;4842065;29;20451;-67
2024/01/05 08:36:45;;;;;;;4.97;1.50;;;7.40;99.90;;;;;;4841484;29;20051;-66
2024/01/05 08:39:11;;;;;;;4.38;1.10;;;7.40;99.90;;;;;;4841718;29;20038;-67
2024/01/05 08:41:37;;;;;;;3.00;1.50;;;7.50;99.90;;;;;;4856198;29;20394;-66
2024/01/05 08:44:02;;;;;;;7.72;1.92;;;7.50;99.90;;;;;;4841179;29;20070;-66
2024/01/05 08:46:28;;;;;;;4.43;1.48;;;7.60;99.90;;;;;;4842489;29;20526;-65
2024/01/05 08:48:54;;;;;;;3.08;1.45;;;7.60;99.90;;;;;;4840076;29;20034;-67
2024/01/05 08:51:20;;;;;;;5.10;0.60;;;7.70;99.90;;;;;;4841274;29;20042;-65
2024/01/05 08:53:45;;;;;;;21.88;1.10;;;7.70;99.90;;;;;;4853746;29;20045;-65
2024/01/05 08:56:11;;;;;;;2.72;1.33;;;7.70;99.90;;;;;;4841854;29;20041;-66
2024/01/05 08:58:37;;;;;;;1.55;1.02;;;7.80;99.90;;;;;;4841301;29;20140;-65
2024/01/05 09:01:03;;;;;;;3.22;1.02;;;7.90;99.90;;;;;;4841294;29;20028;-66
2024/01/05 09:03:29;;;;;;;6.18;0.90;;;7.90;99.90;;;;;;4840279;29;20038;-66
2024/01/05 09:05:55;;;;;;;3.40;1.35;;;7.90;99.90;;;;;;4840823;29;20040;-66
2024/01/05 09:08:21;;;;;;;5.70;0.93;;;7.90;99.90;;;;;;4841464;29;20098;-65
2024/01/05 09:10:47;;;;;;;2.80;0.82;;;7.80;99.90;;;;;;4840960;29;20026;-65
2024/01/05 09:13:12;;;;;;;3.55;1.23;;;7.80;99.90;;;;;;4840853;29;20102;-65
2024/01/05 09:15:38;;;;;;;1.98;0.82;;;7.80;99.90;;;;;;4840927;29;20041;-66
2024/01/05 09:18:05;;;;;;;0.82;0.40;;;7.70;99.90;;;;;;4839665;29;20030;-66
2024/01/05 09:20:31;;;;;;;2.65;1.80;;;7.80;99.90;;;;;;4839607;29;20713;-66
2024/01/05 09:22:56;;;;;;;6.97;1.50;;;7.80;99.90;;;;;;4839247;29;20129;-66
2024/01/05 09:25:25;;;;;;;2.00;0.90;;;7.90;99.90;;;;;;4840904;29;20394;-66
2024/01/05 09:27:50;;;;;;;3.33;1.75;;;8.00;99.90;;;;;;4839473;29;20441;-66
2024/01/05 09:30:16;;;;;;;2.47;1.20;;;8.10;99.90;;;;;;4840989;29;20077;-66
2024/01/05 09:32:42;;;;;;;4.05;1.40;;;8.30;99.90;;;;;;4836420;29;20038;-66
2024/01/05 09:35:11;;;;;;;3.92;2.08;;;8.40;99.90;;;;;;4841039;29;20133;-66
2024/01/05 09:37:37;;;;;;;4.95;1.85;;;8.50;99.90;;;;;;4837201;29;20495;-66
2024/01/05 09:40:04;;;;;;;3.38;1.30;;;8.70;99.90;;;;;;4841041;29;20060;-66
2024/01/05 09:42:29;;;;;;;1.45;0.93;;;8.80;99.90;;;;;;4840827;29;20061;-70
2024/01/05 09:44:56;;;;;;;7.57;1.80;;;9.00;99.90;;;;;;4855283;29;20532;-69
2024/01/05 09:47:22;;;;;;;2.10;1.13;;;8.90;99.90;;;;;;4854876;29;20042;-69
2024/01/05 09:49:52;;;;;;;4.38;1.33;;;9.00;99.90;;;;;;4854955;29;20033;-69
2024/01/05 09:52:22;;;;;;;6.43;1.27;;;9.00;99.90;;;;;;4840278;29;20507;-68
2024/01/05 09:54:49;;;;;;;2.08;1.25;;;9.00;99.90;;;;;;4854557;29;20034;-68
2024/01/05 09:57:18;;;;;;;1.13;0.70;;;8.90;99.90;;;;;;4854881;29;20030;-69
2024/01/05 09:59:47;;;;;;;3.47;1.08;;;8.80;99.90;;;;;;4841027;29;20030;-69
2024/01/05 10:02:25;;;;;;;4.05;1.30;;;8.90;99.90;;;;;;4836788;29;20049;-69
2024/01/05 10:04:51;;;;;;;2.88;1.27;;;9.00;99.90;;;;;;4853729;29;20056;-69
2024/01/05 10:07:18;;;;;;;3.67;1.75;;;9.20;99.90;;;;;;4854878;29;20139;-70
2024/01/05 10:09:54;;;;;;;2.58;1.05;;;9.30;99.90;;;;;;4854682;29;20158;-69
2024/01/05 10:12:20;;;;;;;3.47;1.55;;;9.60;99.90;;;;;;4854273;29;20428;-69
2024/01/05 10:14:49;;;;;;;7.00;1.85;;;9.80;99.90;;;;;;4837618;29;20025;-69
2024/01/05 10:17:18;;;;;;;3.10;1.00;;;10.10;99.90;;;;;;4835648;29;20041;-69
2024/01/05 10:19:44;;;;;;;3.70;1.55;;;10.50;99.90;;;;;;4854156;29;20041;-69
2024/01/05 10:22:16;;;;;;;0.93;0.50;;;11.10;99.90;;;;;;4840245;29;20038;-69
2024/01/05 10:24:42;;;;;;;7.10;1.00;;;10.90;99.90;;;;;;4840406;29;20109;-65
2024/01/05 10:27:10;;;;;;;3.33;1.35;;;11.30;99.90;;;;;;4854473;29;20046;-65
2024/01/05 10:29:42;;;;;;;0.43;0.43;;;11.30;99.90;;;;;;4840234;29;20042;-64
2024/01/05 10:32:12;;;;;;;6.32;0.85;;;11.00;99.90;;;;;;4835534;29;20399;-65
2024/01/05 10:34:43;;;;;;;3.25;0.80;;;11.00;99.90;;;;;;4840261;29;20090;-65
2024/01/05 10:37:09;;;;;;;;;;;10.70;99.90;;;;;;4837175;29;20094;-64
2024/01/05 10:39:36;;;;;;;3.10;1.17;;;10.70;99.90;;;;;;4840098;29;19988;-65
2024/01/05 10:42:27;;;;;;;2.50;1.17;;;10.70;99.90;;;;;;4853895;29;20038;-66
2024/01/05 10:44:58;;;;;;;2.55;1.65;;;10.50;99.90;;;;;;4854090;29;20125;-64
2024/01/05 10:47:26;;;;;;;13.00;2.60;;;10.40;99.90;;;;;;4840415;29;20046;-64
2024/01/05 10:49:55;;;;;;;2.00;0.90;;;10.20;99.90;;;;;;4854039;29;20122;-63
2024/01/05 10:52:28;;;;;;;4.70;0.77;;;10.10;99.90;;;;;;4853752;29;20050;-63
2024/01/05 10:54:54;;;;;;;6.63;0.98;;;9.90;99.90;;;;;;4853889;29;20098;-64
2024/01/05 10:57:23;;;;;;;1.92;0.75;;;10.20;99.90;;;;;;4840082;29;20030;-64
2024/01/05 10:59:54;;;;;;;1.55;0.52;;;10.30;99.90;;;;;;4853854;29;20053;-64
2024/01/05 11:02:41;;;;;;;2.72;0.75;;;10.20;99.90;;;;;;4853230;29;20038;-64
2024/01/05 11:05:13;;;;;;;6.45;1.02;;;10.20;99.90;;;;;;4847583;29;20041;-64
2024/01/05 11:07:41;;;;;;;5.53;0.57;;;10.40;99.90;;;;;;4836028;29;20030;-65
2024/01/05 11:10:40;;;;;;;1.58;0.85;;;10.60;99.90;;;;;;4840116;29;20034;-65
2024/01/05 11:14:05;;;;;;;0.77;0.40;;;10.70;99.90;;;;;;4840694;29;20034;-65
2024/01/05 11:17:15;;;;;;;3.20;0.75;;;10.70;99.90;;;;;;4836728;29;20198;-64
2024/01/05 11:20:24;;;;;;;1.40;0.70;;;10.60;99.90;;;;;;4837635;29;20540;-65
2024/01/05 11:22:50;;;;;;;3.15;1.92;;;10.60;99.90;;;;;;4839493;29;20207;-64
2024/01/05 11:25:16;;;;;;;2.67;0.55;;;10.40;99.90;;;;;;4839944;29;20448;-64
2024/01/05 11:27:46;;;;;;;2.03;0.90;;;10.40;99.90;;;;;;4839822;29;20038;-66
2024/01/05 11:30:12;;;;;;;2.17;0.90;;;10.40;99.90;;;;;;4853788;29;20041;-64
2024/01/05 11:32:46;;;;;;;1.35;0.73;;;10.30;99.90;;;;;;4853354;29;20749;-63
2024/01/05 11:35:20;;;;;;;1.08;0.60;;;10.10;99.90;;;;;;4839310;29;20068;-64
2024/01/05 11:37:50;;;;;;;3.20;0.90;;;10.20;99.90;;;;;;4835547;29;20038;-64
2024/01/05 11:40:27;;;;;;;1.85;0.90;;;10.10;99.90;;;;;;4837724;29;20546;-64
2024/01/05 11:42:53;;;;;;;2.17;1.20;;;10.10;99.90;;;;;;4837589;29;20054;-64
2024/01/05 11:45:41;;;;;;;1.48;0.85;;;10.10;99.90;;;;;;4856859;29;20037;-65
2024/01/05 11:48:08;;;;;;;3.65;0.85;;;10.20;99.90;;;;;;4843083;29;20049;-64
2024/01/05 11:50:38;;;;;;;2.78;0.50;;;10.20;99.90;;;;;;4841648;29;20030;-64
2024/01/05 11:53:18;;;;;;;2.42;0.75;;;10.10;99.90;;;;;;4836004;29;20030;-64
2024/01/05 11:55:49;;;;;;;0.85;0.65;;;10.10;99.90;;;;;;4842533;29;20034;-63
2024/01/05 11:58:25;;;;;;;1.15;0.50;;;10.10;99.90;;;;;;4838817;29;20117;-63
2024/01/05 12:00:58;;;;;;;2.53;0.90;;;10.10;99.90;;;;;;4842448;29;20491;-64
2024/01/05 12:03:26;;;;;;;2.67;1.30;;;10.10;99.90;;;;;;4842743;29;20483;-65
2024/01/05 12:05:56;;;;;;;0.85;0.50;;;10.10;99.90;;;;;;4842611;29;20037;-64
2024/01/05 12:08:23;;;;;;;2.92;1.38;;;10.10;99.90;;;;;;4853082;29;20034;-63
2024/01/05 12:11:09;;;;;;;3.55;0.77;;;10.10;99.90;;;;;;4842403;29;20042;-64
2024/01/05 12:13:37;;;;;;;5.68;1.40;;;10.20;99.90;;;;;;4839695;29;20042;-63
2024/01/05 12:16:05;;;;;;;7.32;1.60;;;10.20;99.90;;;;;;4840812;29;20026;-63
2024/01/05 12:18:42;;;;;;;4.22;0.90;;;10.30;99.90;;;;;;4842125;29;20034;-69
2024/01/05 12:21:11;;;;;;;2.05;0.70;;;10.30;99.90;;;;;;4842137;29;20048;-63
2024/01/05 12:23:37;;;;;;;5.40;1.10;;;10.40;99.90;;;;;;4841864;29;20037;-67
2024/01/05 12:26:05;;;;;;;3.63;0.98;;;10.60;99.90;;;;;;4841729;29;20452;-64
2024/01/05 12:28:33;;;;;;;2.17;0.80;;;10.90;99.90;;;;;;4840625;29;20034;-64
2024/01/05 12:31:00;;;;;;;5.07;0.68;;;11.10;99.90;;;;;;4855394;29;20074;-64
2024/01/05 12:33:28;;;;;;;1.60;0.80;;;11.20;99.90;;;;;;4836815;29;20506;-66
2024/01/05 12:35:54;;;;;;;1.38;0.47;;;11.10;99.90;;;;;;4841874;29;20034;-64
2024/01/05 12:38:30;;;;;;;0.85;0.50;;;11.20;99.90;;;;;;4841745;29;20360;-65
2024/01/05 12:41:09;;;;;;;1.50;0.68;;;11.10;99.90;;;;;;4840899;29;20483;-65
2024/01/05 12:43:45;;;;;;;1.50;0.52;;;10.90;99.90;;;;;;4840356;29;20076;-63
2024/01/05 12:46:12;;;;;;;4.35;0.68;;;10.80;99.90;;;;;;4837190;29;20052;-62
2024/01/05 12:48:39;;;;;;;0.60;0.60;;;11.00;99.90;;;;;;4859804;29;20448;-64
2024/01/05 12:51:14;;;;;;;1.95;0.50;;;10.70;99.90;;;;;;4855931;29;20037;-69
2024/01/05 12:53:40;;;;;;;2.97;0.60;;;10.90;99.90;;;;;;4860415;29;20037;-69
2024/01/05 12:56:10;;;;;;;2.67;0.68;;;11.10;99.90;;;;;;4841564;29;20044;-69
2024/01/05 12:58:47;;;;;;;6.72;1.55;;;11.20;99.90;;;;;;4841339;29;20049;-69